Terminal Aerodrome Forecast
Issued by NWS Twin Cities, MN

Home | Current Version | Previous Version | Text Only | Print | Product List | Glossary On
Versions: 1 2 3 4 5 6 7 8 9 10 11 12 13 14 15 16 17
000
FTUS43 KMPX 051120
TAFSTC
TAF
KSTC 051120Z 0512/0612 07005KT P6SM SKC
     FM051700 12011G18KT P6SM FEW120
     FM052300 12009KT P6SM OVC050
     FM060600 11007KT P6SM VCSH OVC015=

USA.gov is the U.S. government's official web portal to all federal, state and local government web resources and services.